createdAt,value
2022-11-27T00:01:30.917Z,101864.25
2022-11-27T00:03:58.713Z,101867.25
2022-11-27T00:06:27.803Z,101853.88
2022-11-27T00:08:57.404Z,101859.47
2022-11-27T00:11:26.552Z,101864.53
2022-11-27T00:13:55.459Z,101852.63
2022-11-27T00:16:23.884Z,101848.28
2022-11-27T00:18:53.172Z,101844.31
2022-11-27T00:21:24.048Z,101851.13
2022-11-27T00:23:52.425Z,101834.84
2022-11-27T00:26:20.294Z,101836.47
2022-11-27T00:28:48.200Z,101828.41
2022-11-27T00:31:18.137Z,101841.94
2022-11-27T00:33:46.320Z,101839.53
2022-11-27T00:36:16.200Z,101845.34
2022-11-27T00:38:43.970Z,101838.25
2022-11-27T00:41:13.389Z,101827.25
2022-11-27T00:43:44.616Z,101829.03
2022-11-27T00:46:13.407Z,101834.34
2022-11-27T00:48:41.338Z,101833.66
2022-11-27T00:51:10.707Z,101837.06
2022-11-27T00:53:39.726Z,101844.53
2022-11-27T00:56:07.970Z,101840.16
2022-11-27T00:58:35.926Z,101832.84
2022-11-27T01:01:05.871Z,101844.03
2022-11-27T01:03:33.684Z,101845.91
2022-11-27T01:06:05.173Z,101843.25
2022-11-27T01:08:33.248Z,101837.88
2022-11-27T01:11:02.547Z,101844.47
2022-11-27T01:13:32.245Z,101848.06
2022-11-27T01:16:00.970Z,101828.34
2022-11-27T01:18:29.155Z,101836.88
2022-11-27T01:20:57.063Z,101824.78
2022-11-27T01:23:25.253Z,101827.06
2022-11-27T01:25:54.029Z,101824.41
2022-11-27T01:28:24.039Z,101829.94
2022-11-27T01:30:52.278Z,101815.66
2022-11-27T01:33:20.369Z,101819.09
2022-11-27T01:35:55.249Z,101824.47
2022-11-27T01:38:23.360Z,101819.69
2022-11-27T01:40:51.384Z,101812.63
2022-11-27T01:43:19.039Z,101812.22
2022-11-27T01:45:48.048Z,101810.78
2022-11-27T01:48:15.763Z,101800.06
2022-11-27T01:50:43.430Z,101802.97
2022-11-27T01:53:14.285Z,101811.19
2022-11-27T01:55:44.188Z,101809.22
2022-11-27T01:58:14.950Z,101786.09
2022-11-27T02:00:42.841Z,101792.69
2022-11-27T02:03:12.320Z,101798.84
2022-11-27T02:05:40.096Z,101788.28
2022-11-27T02:08:10.366Z,101791.78
2022-11-27T02:10:44.501Z,101788.16
2022-11-27T02:13:15.127Z,101795.16
2022-11-27T02:15:45.542Z,101787.00
2022-11-27T02:18:20.541Z,101766.16
2022-11-27T02:20:52.469Z,101767.75
2022-11-27T02:23:38.032Z,101770.47
2022-11-27T02:26:32.368Z,101749.22
2022-11-27T02:29:03.567Z,101748.22
2022-11-27T02:31:37.482Z,101753.63
2022-11-27T02:34:24.509Z,101754.31
2022-11-27T02:37:01.584Z,101738.53
2022-11-27T02:39:33.592Z,101728.41
2022-11-27T02:42:06.957Z,101732.53
2022-11-27T02:44:36.985Z,101727.22
2022-11-27T02:47:06.135Z,101712.56
2022-11-27T02:49:34.818Z,101711.78
2022-11-27T02:52:03.355Z,101712.28
2022-11-27T02:54:32.105Z,101705.97
2022-11-27T02:57:02.005Z,101719.69
2022-11-27T02:59:31.347Z,101709.25
2022-11-27T03:02:03.047Z,101723.06
2022-11-27T03:04:34.598Z,101721.63
2022-11-27T03:07:05.208Z,101707.63
2022-11-27T03:09:36.034Z,101701.03
2022-11-27T03:12:04.584Z,101700.09
2022-11-27T03:14:32.312Z,101691.81
2022-11-27T03:17:04.388Z,101693.47
2022-11-27T03:19:38.541Z,101686.97
2022-11-27T03:22:06.640Z,101682.16
2022-11-27T03:24:36.362Z,101687.72
2022-11-27T03:27:04.872Z,101689.97
2022-11-27T03:29:36.111Z,101691.63
2022-11-27T03:32:05.744Z,101691.44
2022-11-27T03:34:34.019Z,101687.09
2022-11-27T03:37:01.936Z,101692.69
2022-11-27T03:39:30.527Z,101684.44
2022-11-27T03:42:06.807Z,101687.78
2022-11-27T03:44:41.713Z,101680.03
2022-11-27T03:47:15.822Z,101677.38
2022-11-27T03:49:55.929Z,101675.97
2022-11-27T03:52:28.141Z,101674.66
2022-11-27T03:55:01.636Z,101672.41
2022-11-27T03:57:33.225Z,101672.00
2022-11-27T04:00:02.598Z,101666.78
2022-11-27T04:02:39.699Z,101656.50
2022-11-27T04:05:08.176Z,101657.00
2022-11-27T04:07:36.010Z,101642.03
2022-11-27T04:10:03.691Z,101638.72
2022-11-27T04:12:31.336Z,101633.47
2022-11-27T04:14:59.052Z,101647.63
2022-11-27T04:17:27.006Z,101648.84
2022-11-27T04:19:56.030Z,101645.69
2022-11-27T04:22:23.717Z,101646.34
2022-11-27T04:24:51.622Z,101648.91
2022-11-27T04:27:19.420Z,101638.03
2022-11-27T04:29:47.146Z,101641.97
2022-11-27T04:32:14.868Z,101631.78
2022-11-27T04:34:42.684Z,101619.56
2022-11-27T04:37:11.797Z,101622.66
2022-11-27T04:39:39.435Z,101603.41
2022-11-27T04:42:07.852Z,101619.88
2022-11-27T04:44:35.576Z,101619.13
2022-11-27T04:47:03.589Z,101615.53
2022-11-27T04:49:31.299Z,101615.22
2022-11-27T04:51:58.977Z,101621.84
2022-11-27T04:54:28.046Z,101628.59
2022-11-27T04:56:55.740Z,101618.78
2022-11-27T04:59:23.452Z,101627.56
2022-11-27T05:01:51.331Z,101618.22
2022-11-27T05:04:19.088Z,101618.09
2022-11-27T05:06:46.808Z,101619.97
2022-11-27T05:09:14.530Z,101606.25
2022-11-27T05:11:43.576Z,101603.78
2022-11-27T05:14:18.067Z,101601.41
2022-11-27T05:16:47.522Z,101615.94
2022-11-27T05:19:15.875Z,101608.72
2022-11-27T05:21:44.397Z,101601.78
2022-11-27T05:24:12.307Z,101608.88
2022-11-27T05:26:40.816Z,101614.19
2022-11-27T05:29:10.423Z,101600.81
2022-11-27T05:31:38.697Z,101599.84
2022-11-27T05:34:06.926Z,101606.47
2022-11-27T05:36:34.809Z,101597.22
2022-11-27T05:39:03.699Z,101592.78
2022-11-27T05:41:31.583Z,101586.72
2022-11-27T05:43:59.342Z,101591.81
2022-11-27T05:46:29.036Z,101599.97
2022-11-27T05:48:56.770Z,101580.00
2022-11-27T05:51:24.787Z,101582.94
2022-11-27T05:53:52.438Z,101575.72
2022-11-27T05:56:20.217Z,101572.97
2022-11-27T05:58:49.164Z,101576.44
2022-11-27T06:01:18.390Z,101579.00
2022-11-27T06:03:47.447Z,101577.97
2022-11-27T06:06:17.319Z,101562.84
2022-11-27T06:08:45.664Z,101575.31
2022-11-27T06:11:15.421Z,101560.31
2022-11-27T06:13:43.202Z,101556.03
2022-11-27T06:16:14.213Z,101559.38
2022-11-27T06:18:41.902Z,101563.34
2022-11-27T06:21:12.902Z,101562.00
2022-11-27T06:23:41.072Z,101555.59
2022-11-27T06:26:14.228Z,101551.75
2022-11-27T06:28:42.073Z,101559.09
2022-11-27T06:31:17.551Z,101562.75
2022-11-27T06:33:45.905Z,101532.38
2022-11-27T06:36:15.104Z,101538.38
2022-11-27T06:38:42.848Z,101538.88
2022-11-27T06:41:12.112Z,101540.94
2022-11-27T06:43:39.894Z,101536.78
2022-11-27T06:46:09.153Z,101537.94
2022-11-27T06:48:36.856Z,101527.19
2022-11-27T06:51:05.982Z,101532.97
2022-11-27T06:53:36.524Z,101528.16
2022-11-27T06:56:04.935Z,101523.34
2022-11-27T06:58:32.907Z,101512.97
2022-11-27T07:01:00.993Z,101525.53
2022-11-27T07:03:28.843Z,101526.06
2022-11-27T07:05:56.499Z,101521.28
2022-11-27T07:08:24.218Z,101522.00
2022-11-27T07:10:53.276Z,101527.91
2022-11-27T07:13:21.025Z,101519.31
2022-11-27T07:15:48.793Z,101521.03
2022-11-27T07:18:16.485Z,101507.34
2022-11-27T07:20:44.158Z,101518.41
2022-11-27T07:23:11.800Z,101512.75
2022-11-27T07:25:39.436Z,101509.66
2022-11-27T07:28:08.504Z,101512.66
2022-11-27T07:30:36.221Z,101509.81
2022-11-27T07:33:04.060Z,101522.44
2022-11-27T07:35:31.692Z,101516.69
2022-11-27T07:37:59.387Z,101520.53
2022-11-27T07:40:27.069Z,101529.28
2022-11-27T07:42:54.800Z,101518.47
2022-11-27T07:45:23.867Z,101522.22
2022-11-27T07:47:51.653Z,101513.22
2022-11-27T07:50:19.423Z,101514.97
2022-11-27T07:52:47.113Z,101516.13
2022-11-27T07:55:15.076Z,101506.34
2022-11-27T07:57:43.456Z,101488.78
2022-11-27T08:00:12.060Z,101470.91
2022-11-27T08:02:41.146Z,101477.75
2022-11-27T08:05:12.682Z,101468.16
2022-11-27T08:07:40.804Z,101471.34
2022-11-27T08:10:09.482Z,101455.72
2022-11-27T08:12:37.171Z,101472.91
2022-11-27T08:15:05.744Z,101478.94
2022-11-27T08:17:33.520Z,101470.22
2022-11-27T08:20:04.300Z,101475.28
2022-11-27T08:22:31.972Z,101467.03
2022-11-27T08:24:59.682Z,101465.00
2022-11-27T08:27:27.411Z,101467.47
2022-11-27T08:29:55.052Z,101452.69
2022-11-27T08:32:22.732Z,101442.84
2022-11-27T08:34:50.401Z,101441.31
2022-11-27T08:37:19.468Z,101459.00
2022-11-27T08:39:47.192Z,101438.75
2022-11-27T08:42:14.958Z,101438.09
2022-11-27T08:44:43.054Z,101436.78
2022-11-27T08:47:11.072Z,101450.44
2022-11-27T08:49:42.500Z,101458.72
2022-11-27T08:52:12.793Z,101449.75
2022-11-27T08:54:42.144Z,101437.25
2022-11-27T08:57:10.055Z,101436.81
2022-11-27T08:59:37.728Z,101439.31
2022-11-27T09:02:05.482Z,101435.16
2022-11-27T09:04:33.260Z,101444.69
2022-11-27T09:07:01.312Z,101446.25
2022-11-27T09:09:29.274Z,101449.41
2022-11-27T09:11:58.397Z,101442.56
2022-11-27T09:14:26.116Z,101453.97
2022-11-27T09:16:54.467Z,101453.72
2022-11-27T09:19:22.584Z,101466.84
2022-11-27T09:21:50.562Z,101465.63
2022-11-27T09:24:18.814Z,101468.16
2022-11-27T09:26:46.484Z,101460.84
2022-11-27T09:29:15.565Z,101449.44
2022-11-27T09:31:43.367Z,101471.41
2022-11-27T09:34:11.145Z,101464.81
2022-11-27T09:36:38.797Z,101477.47
2022-11-27T09:39:06.481Z,101466.91
2022-11-27T09:41:47.006Z,101471.50
2022-11-27T09:44:26.415Z,101473.00
2022-11-27T09:46:56.487Z,101465.41
2022-11-27T09:49:27.442Z,101446.34
2022-11-27T09:52:00.504Z,101444.38
2022-11-27T09:54:31.736Z,101449.06
2022-11-27T09:56:59.935Z,101444.44
2022-11-27T09:59:33.173Z,101445.13
2022-11-27T10:02:00.939Z,101442.31
2022-11-27T10:04:36.182Z,101435.44
2022-11-27T10:07:25.445Z,101445.13
2022-11-27T10:10:06.222Z,101436.56
2022-11-27T10:12:41.170Z,101439.28
2022-11-27T10:15:13.515Z,101436.84
2022-11-27T10:17:44.522Z,101432.69
2022-11-27T10:20:19.677Z,101436.66
2022-11-27T10:22:53.929Z,101429.75
2022-11-27T10:25:26.564Z,101428.28
2022-11-27T10:28:04.228Z,101416.56
2022-11-27T10:30:34.470Z,101416.94
2022-11-27T10:33:03.431Z,101422.50
2022-11-27T10:35:32.063Z,101414.94
2022-11-27T10:38:06.477Z,101405.47
2022-11-27T10:40:39.566Z,101406.06
2022-11-27T10:43:12.035Z,101408.16
2022-11-27T10:45:45.192Z,101395.31
2022-11-27T10:48:14.053Z,101393.94
2022-11-27T10:50:42.579Z,101388.38
2022-11-27T10:53:12.856Z,101376.13
2022-11-27T10:55:55.572Z,101364.78
2022-11-27T10:58:28.144Z,101369.47
2022-11-27T11:01:05.336Z,101363.09
2022-11-27T11:03:33.063Z,101360.97
2022-11-27T11:06:19.986Z,101356.56
2022-11-27T11:08:49.144Z,101353.59
2022-11-27T11:11:26.454Z,101348.56
2022-11-27T11:13:54.976Z,101354.72
2022-11-27T11:16:29.423Z,101331.56
2022-11-27T11:19:01.536Z,101339.53
2022-11-27T11:21:30.676Z,101321.81
2022-11-27T11:24:00.840Z,101334.03
2022-11-27T11:26:30.261Z,101334.28
2022-11-27T11:28:59.999Z,101334.78
2022-11-27T11:31:33.381Z,101327.25
2022-11-27T11:47:17.112Z,101313.88
2022-11-27T11:49:44.829Z,101324.81
2022-11-27T11:52:22.871Z,101314.38
2022-11-27T11:54:57.146Z,101296.09
2022-11-27T11:57:47.287Z,101283.78
2022-11-27T12:00:17.511Z,101282.72
2022-11-27T12:03:04.436Z,101278.38
2022-11-27T12:05:38.805Z,101268.22
2022-11-27T12:08:16.938Z,101275.97
2022-11-27T12:10:53.453Z,101279.03
2022-11-27T12:13:33.951Z,101257.53
2022-11-27T12:16:07.479Z,101262.06
2022-11-27T12:18:46.975Z,101257.03
2022-11-27T12:21:16.100Z,101269.16
2022-11-27T12:23:53.869Z,101259.97
2022-11-27T12:26:30.079Z,101238.00
2022-11-27T12:29:15.203Z,101245.44
2022-11-27T12:31:56.238Z,101229.28
2022-11-27T12:34:33.217Z,101224.63
2022-11-27T12:37:14.097Z,101213.84
2022-11-27T12:39:52.295Z,101223.28
2022-11-27T12:42:22.257Z,101224.88
2022-11-27T12:44:55.679Z,101222.66
2022-11-27T12:47:27.179Z,101212.09
2022-11-27T12:49:58.700Z,101201.03
2022-11-27T12:52:30.182Z,101204.56
2022-11-27T12:55:01.973Z,101193.38
2022-11-27T12:57:35.476Z,101197.34
2022-11-27T13:00:06.574Z,101184.03
2022-11-27T13:02:36.862Z,101194.91
2022-11-27T13:05:08.096Z,101181.03
2022-11-27T13:07:41.953Z,101186.53
2022-11-27T13:10:25.316Z,101169.63
2022-11-27T13:13:00.123Z,101165.19
2022-11-27T13:15:32.392Z,101156.03
2022-11-27T13:18:06.131Z,101149.16
2022-11-27T13:20:38.189Z,101156.66
2022-11-27T13:23:05.840Z,101144.53
2022-11-27T13:25:36.068Z,101138.34
2022-11-27T13:28:06.018Z,101147.56
2022-11-27T13:30:35.879Z,101134.00
2022-11-27T13:33:06.225Z,101129.56
2022-11-27T13:35:41.887Z,101128.69
2022-11-27T13:38:11.842Z,101127.94
2022-11-27T13:40:41.404Z,101116.91
2022-11-27T13:43:20.658Z,101122.56
2022-11-27T13:45:48.721Z,101125.19
2022-11-27T13:48:27.293Z,101125.97
2022-11-27T13:50:56.808Z,101113.72
2022-11-27T13:53:32.085Z,101118.72
2022-11-27T13:55:59.922Z,101114.50
2022-11-27T13:58:32.648Z,101104.69
2022-11-27T14:01:00.904Z,101116.38
2022-11-27T14:03:30.067Z,101108.09
2022-11-27T14:05:59.107Z,101107.63
2022-11-27T14:08:28.285Z,101110.25
2022-11-27T14:10:59.215Z,101097.09
2022-11-27T14:13:39.599Z,101097.59
2022-11-27T14:16:22.432Z,101092.25
2022-11-27T14:18:51.867Z,101098.59
2022-11-27T14:21:26.541Z,101077.81
2022-11-27T14:23:54.778Z,101065.34
2022-11-27T14:26:24.174Z,101074.13
2022-11-27T14:28:54.096Z,101063.44
2022-11-27T14:31:28.875Z,101064.81
2022-11-27T14:34:15.172Z,101071.56
2022-11-27T14:36:45.326Z,101067.66
2022-11-27T14:39:22.370Z,101050.25
2022-11-27T14:41:57.468Z,101068.53
2022-11-27T14:44:25.267Z,101054.47
2022-11-27T14:46:53.702Z,101051.13
2022-11-27T14:49:23.334Z,101058.69
2022-11-27T14:51:52.871Z,101042.25
2022-11-27T14:54:25.444Z,101031.56
2022-11-27T14:56:53.303Z,101021.81
2022-11-27T14:59:22.168Z,101021.13
2022-11-27T15:02:00.863Z,101013.78
2022-11-27T15:04:30.093Z,101018.50
2022-11-27T15:06:59.786Z,101012.84
2022-11-27T15:09:32.419Z,101005.84
2022-11-27T15:12:03.309Z,101008.25
2022-11-27T15:14:31.492Z,101007.88
2022-11-27T15:16:59.907Z,100984.50
2022-11-27T15:19:30.016Z,100995.84
2022-11-27T15:21:59.519Z,100997.53
2022-11-27T15:24:32.576Z,100995.31
2022-11-27T15:27:17.820Z,100999.72
2022-11-27T15:30:00.289Z,100995.66
2022-11-27T15:32:34.508Z,100993.56
2022-11-27T15:35:13.106Z,100991.34
2022-11-27T15:37:42.224Z,100992.28
2022-11-27T15:40:24.938Z,100988.81
2022-11-27T15:42:52.592Z,100988.34
2022-11-27T15:45:20.306Z,100972.97
2022-11-27T15:47:48.109Z,100976.41
2022-11-27T15:50:16.367Z,100968.09
2022-11-27T15:52:45.453Z,100964.44
2022-11-27T15:55:14.820Z,100967.34
2022-11-27T15:57:42.683Z,100959.19
2022-11-27T16:00:11.337Z,100953.94
2022-11-27T16:02:39.164Z,100951.66
2022-11-27T16:05:08.755Z,100944.16
2022-11-27T16:07:36.552Z,100937.25
2022-11-27T16:10:07.061Z,100941.97
2022-11-27T16:12:34.785Z,100940.47
2022-11-27T16:15:02.539Z,100935.88
2022-11-27T16:17:30.252Z,100940.06
2022-11-27T16:19:58.094Z,100934.31
2022-11-27T16:22:25.808Z,100929.00
2022-11-27T16:24:53.484Z,100934.19
2022-11-27T16:27:22.471Z,100917.22
2022-11-27T16:29:50.168Z,100914.66
2022-11-27T16:32:17.839Z,100908.22
2022-11-27T16:34:45.529Z,100907.56
2022-11-27T16:37:18.232Z,100904.00
2022-11-27T16:39:46.292Z,100897.84
2022-11-27T16:42:13.939Z,100905.72
2022-11-27T16:44:44.361Z,100892.84
2022-11-27T16:47:12.199Z,100900.22
2022-11-27T16:49:39.916Z,100896.91
2022-11-27T16:52:07.583Z,100906.09
2022-11-27T16:54:35.239Z,100884.94
2022-11-27T16:57:02.938Z,100875.78
2022-11-27T16:59:30.716Z,100876.03
2022-11-27T17:01:59.830Z,100872.09
2022-11-27T17:04:27.944Z,100867.91
2022-11-27T17:06:56.225Z,100872.25
2022-11-27T17:09:29.184Z,100883.00
2022-11-27T17:11:56.956Z,100882.38
2022-11-27T17:14:26.820Z,100888.00
2022-11-27T17:16:54.534Z,100872.09
2022-11-27T17:19:24.229Z,100871.97
2022-11-27T17:21:52.030Z,100873.41
2022-11-27T17:24:19.788Z,100869.50
2022-11-27T17:26:48.463Z,100858.84
2022-11-27T17:29:17.572Z,100857.56
2022-11-27T17:31:45.387Z,100858.78
2022-11-27T17:34:14.670Z,100854.72
2022-11-27T17:36:45.065Z,100838.16
2022-11-27T17:39:14.214Z,100833.34
2022-11-27T17:41:44.431Z,100840.44
2022-11-27T17:44:12.487Z,100831.91
2022-11-27T17:46:40.579Z,100825.09
2022-11-27T17:49:08.812Z,100821.97
2022-11-27T17:51:37.478Z,100820.41
2022-11-27T17:54:06.636Z,100795.28
2022-11-27T17:56:35.012Z,100813.22
2022-11-27T17:59:02.959Z,100803.59
2022-11-27T18:01:31.272Z,100807.06
2022-11-27T18:04:01.254Z,100802.38
2022-11-27T18:06:29.261Z,100800.09
2022-11-27T18:08:58.162Z,100800.22
2022-11-27T18:11:29.359Z,100794.13
2022-11-27T18:13:57.313Z,100796.47
2022-11-27T18:16:29.004Z,100787.03
2022-11-27T18:18:57.576Z,100794.63
2022-11-27T18:21:27.121Z,100789.28
2022-11-27T18:27:07.340Z,100759.56
2022-11-27T18:29:32.175Z,100760.53
2022-11-27T18:31:59.900Z,100775.22
2022-11-27T18:34:27.611Z,100775.19
2022-11-27T18:36:57.323Z,100768.28
2022-11-27T18:39:25.096Z,100760.97
2022-11-27T18:41:54.164Z,100762.13
2022-11-27T18:44:21.862Z,100763.94
2022-11-27T18:46:49.568Z,100758.47
2022-11-27T18:49:17.212Z,100732.06
2022-11-27T18:51:45.010Z,100743.78
2022-11-27T18:54:12.754Z,100756.06
2022-11-27T18:56:40.516Z,100757.19
2022-11-27T18:59:09.768Z,100749.06
2022-11-27T19:01:42.289Z,100747.31
2022-11-27T19:04:10.790Z,100751.44
2022-11-27T19:06:39.484Z,100754.19
2022-11-27T19:09:07.749Z,100749.81
2022-11-27T19:11:35.968Z,100742.56
2022-11-27T19:14:03.691Z,100750.41
2022-11-27T19:16:33.976Z,100750.66
2022-11-27T19:19:03.014Z,100749.44
2022-11-27T19:21:32.594Z,100739.78
2022-11-27T19:24:02.439Z,100736.16
2022-11-27T19:26:31.881Z,100733.03
2022-11-27T19:29:03.608Z,100725.22
2022-11-27T19:31:34.051Z,100721.47
2022-11-27T19:34:03.073Z,100717.25
2022-11-27T19:36:32.362Z,100719.31
2022-11-27T19:39:01.636Z,100718.53
2022-11-27T19:41:29.356Z,100710.75
2022-11-27T19:43:57.040Z,100713.00
2022-11-27T19:46:26.512Z,100699.94
2022-11-27T19:48:57.781Z,100707.75
2022-11-27T19:51:26.092Z,100700.78
2022-11-27T19:53:53.839Z,100691.84
2022-11-27T19:56:21.581Z,100693.13
2022-11-27T19:58:49.271Z,100698.19
2022-11-27T20:01:18.641Z,100684.16
2022-11-27T20:03:47.251Z,100685.16
2022-11-27T20:06:18.340Z,100682.91
2022-11-27T20:08:47.976Z,100672.94
2022-11-27T20:11:18.237Z,100677.78
2022-11-27T20:13:46.280Z,100678.34
2022-11-27T20:16:16.765Z,100668.84
2022-11-27T20:18:45.083Z,100662.19
2022-11-27T20:21:14.398Z,100669.81
2022-11-27T20:23:43.888Z,100656.03
2022-11-27T20:26:14.031Z,100660.38
2022-11-27T20:28:42.160Z,100655.19
2022-11-27T20:31:14.651Z,100642.44
2022-11-27T20:33:42.426Z,100654.84
2022-11-27T20:36:13.726Z,100648.81
2022-11-27T20:38:42.831Z,100644.13
2022-11-27T20:41:15.076Z,100634.78
2022-11-27T20:43:43.052Z,100637.31
2022-11-27T20:46:13.406Z,100625.97
2022-11-27T20:48:41.241Z,100627.28
2022-11-27T20:51:10.845Z,100628.38
2022-11-27T20:53:38.517Z,100614.56
2022-11-27T20:56:09.349Z,100624.66
2022-11-27T20:58:37.723Z,100612.34
2022-11-27T21:01:13.891Z,100616.38
2022-11-27T21:03:41.400Z,100608.78
2022-11-27T21:06:08.922Z,100606.19
2022-11-27T21:08:36.659Z,100594.75
2022-11-27T21:11:10.200Z,100582.91
2022-11-27T21:13:37.735Z,100585.34
2022-11-27T21:16:07.700Z,100588.22
2022-11-27T21:18:35.280Z,100585.25
2022-11-27T21:21:06.353Z,100585.38
2022-11-27T21:23:33.843Z,100584.78
2022-11-27T21:26:01.611Z,100575.38
2022-11-27T21:28:30.708Z,100573.44
2022-11-27T21:31:04.757Z,100572.91
2022-11-27T21:33:32.284Z,100567.88
2022-11-27T21:35:59.828Z,100555.63
2022-11-27T21:38:27.404Z,100563.31
2022-11-27T21:40:54.951Z,100573.75
2022-11-27T21:43:22.629Z,100559.28
2022-11-27T21:45:51.602Z,100554.75
2022-11-27T21:48:19.123Z,100548.50
2022-11-27T21:50:46.653Z,100529.44
2022-11-27T21:53:14.130Z,100544.06
2022-11-27T21:55:41.789Z,100539.94
2022-11-27T21:58:09.349Z,100535.16
2022-11-27T22:00:37.113Z,100531.13
2022-11-27T22:03:05.949Z,100532.75
2022-11-27T22:05:33.460Z,100530.84
2022-11-27T22:08:00.989Z,100532.25
2022-11-27T22:10:29.063Z,100521.81
2022-11-27T22:12:56.561Z,100513.06
2022-11-27T22:15:24.083Z,100506.13
2022-11-27T22:17:51.600Z,100531.19
2022-11-27T22:20:20.466Z,100508.06
2022-11-27T22:22:47.923Z,100516.78
2022-11-27T22:25:17.909Z,100523.44
2022-11-27T22:27:45.429Z,100508.47
2022-11-27T22:30:13.132Z,100512.81
2022-11-27T22:32:40.579Z,100507.72
2022-11-27T22:35:08.416Z,100503.31
2022-11-27T22:37:37.244Z,100505.19
2022-11-27T22:40:05.078Z,100488.88
2022-11-27T22:42:32.551Z,100490.34
2022-11-27T22:45:00.052Z,100491.19
2022-11-27T22:47:27.549Z,100490.28
2022-11-27T22:49:55.042Z,100475.41
2022-11-27T22:52:22.525Z,100453.94
2022-11-27T22:54:51.327Z,100468.00
2022-11-27T22:57:18.857Z,100466.22
2022-11-27T22:59:46.312Z,100467.78
2022-11-27T23:02:13.875Z,100450.03
2022-11-27T23:04:41.764Z,100459.97
2022-11-27T23:07:09.569Z,100456.41
2022-11-27T23:09:37.205Z,100474.97
2022-11-27T23:12:06.472Z,100464.16
2022-11-27T23:14:33.972Z,100472.19
2022-11-27T23:17:01.530Z,100456.72
2022-11-27T23:19:29.092Z,100444.56
2022-11-27T23:21:56.588Z,100462.88
2022-11-27T23:24:24.015Z,100466.16
2022-11-27T23:26:51.457Z,100453.78
2022-11-27T23:29:20.443Z,100458.06
2022-11-27T23:31:47.968Z,100451.47
2022-11-27T23:34:16.116Z,100452.13
2022-11-27T23:36:43.946Z,100428.09
2022-11-27T23:39:12.128Z,100422.06
2022-11-27T23:41:39.843Z,100420.16
2022-11-27T23:44:07.755Z,100406.41
2022-11-27T23:46:36.570Z,100403.84
2022-11-27T23:49:04.096Z,100402.91
2022-11-27T23:51:32.524Z,100413.72
2022-11-27T23:54:00.399Z,100411.63
2022-11-27T23:56:28.619Z,100415.75
2022-11-27T23:58:56.315Z,100409.47
